createdAt,value
2023-04-23T00:01:02.486Z,49
2023-04-23T00:06:20.669Z,48.8
2023-04-23T00:11:38.777Z,49
2023-04-23T00:16:56.933Z,49.2
2023-04-23T00:22:15.471Z,48.3
2023-04-23T00:27:33.576Z,49.6
2023-04-23T00:32:51.795Z,49.8
2023-04-23T00:38:09.831Z,49.9
2023-04-23T00:43:28.295Z,50.6
2023-04-23T00:48:46.837Z,50.1
2023-04-23T00:54:05.002Z,50.4
2023-04-23T00:59:23.374Z,51
2023-04-23T01:04:42.847Z,50
2023-04-23T01:10:01.361Z,50.5
2023-04-23T01:15:19.568Z,50.9
2023-04-23T01:20:37.709Z,50.5
2023-04-23T01:25:56.100Z,50.4
2023-04-23T01:31:14.804Z,50
2023-04-23T01:36:33.498Z,49.5
2023-04-23T01:41:51.614Z,49.5
2023-04-23T01:47:10.229Z,49.6
2023-04-23T01:52:28.377Z,49.7
2023-04-23T01:57:46.703Z,50
2023-04-23T02:03:05.675Z,49.1
2023-04-23T02:08:23.940Z,49.1
2023-04-23T02:13:42.482Z,49.3
2023-04-23T02:19:00.951Z,49.3
2023-04-23T02:24:18.919Z,48.7
2023-04-23T02:29:37.446Z,49.6
2023-04-23T02:34:55.824Z,49.4
2023-04-23T02:40:13.991Z,49.5
2023-04-23T02:45:32.583Z,49.1
2023-04-23T02:50:50.774Z,49.2
2023-04-23T02:56:09.203Z,48.4
2023-04-23T03:01:27.459Z,48.5
2023-04-23T03:06:45.656Z,49
2023-04-23T03:12:04.067Z,48.5
2023-04-23T03:17:22.533Z,48.4
2023-04-23T03:22:40.765Z,49.3
2023-04-23T03:27:58.935Z,49.1
2023-04-23T03:33:17.500Z,48.5
2023-04-23T03:38:35.902Z,48.9
2023-04-23T03:43:54.243Z,48.2
2023-04-23T03:49:12.725Z,48.9
2023-04-23T03:54:31.241Z,48
2023-04-23T03:59:49.640Z,49.2
2023-04-23T04:05:08.809Z,49.2
2023-04-23T04:10:27.257Z,48.3
2023-04-23T04:15:45.334Z,48.2
2023-04-23T04:21:03.753Z,48.9
2023-04-23T04:26:21.744Z,48.9
2023-04-23T04:31:40.065Z,48.9
2023-04-23T04:36:58.247Z,48.1
2023-04-23T04:42:16.263Z,48
2023-04-23T04:47:34.503Z,47.9
2023-04-23T04:52:52.645Z,48.7
2023-04-23T04:58:11.010Z,48.7
2023-04-23T05:03:29.611Z,48.1
2023-04-23T05:08:47.979Z,48.2
2023-04-23T05:14:06.337Z,49
2023-04-23T05:19:24.464Z,48.5
2023-04-23T05:24:43.610Z,48.7
2023-04-23T05:30:02.215Z,48.6
2023-04-23T05:35:20.607Z,48.6
2023-04-23T05:40:38.956Z,48.1
2023-04-23T05:45:57.379Z,47.9
2023-04-23T05:51:15.423Z,47.7
2023-04-23T05:56:34.036Z,48
2023-04-23T06:01:52.518Z,47.8
2023-04-23T06:07:10.733Z,47.8
2023-04-23T06:12:29.922Z,48.2
2023-04-23T06:17:48.671Z,47.8
2023-04-23T06:23:06.849Z,48.6
2023-04-23T06:28:25.008Z,48.1
2023-04-23T06:33:43.202Z,48.2
2023-04-23T06:39:01.922Z,48.6
2023-04-23T06:44:20.564Z,48.3
2023-04-23T06:49:38.951Z,48.8
2023-04-23T06:54:57.080Z,48.2
2023-04-23T07:00:15.447Z,47.9
2023-04-23T07:05:34.130Z,48.5
2023-04-23T07:10:52.694Z,47.3
2023-04-23T07:16:11.103Z,48.1
2023-04-23T07:21:29.432Z,47.4
2023-04-23T07:26:48.009Z,48.1
2023-04-23T07:32:06.511Z,48
2023-04-23T07:37:24.678Z,46.8
2023-04-23T07:42:42.790Z,47.5
2023-04-23T07:48:01.112Z,46.7
2023-04-23T07:53:19.338Z,42.8
2023-04-23T07:58:37.890Z,41.9
2023-04-23T08:04:00.496Z,41.4
2023-04-23T08:09:24.555Z,41.7
2023-04-23T08:14:42.677Z,41.4
2023-04-23T08:19:51.069Z,42.4
2023-04-23T08:25:09.496Z,41.9
2023-04-23T08:30:27.822Z,42.2
2023-04-23T08:35:46.016Z,43.3
2023-04-23T08:41:04.380Z,43.8
2023-04-23T08:46:23.387Z,44.4
2023-04-23T08:51:41.697Z,44.5
2023-04-23T08:57:00.425Z,44.8
2023-04-23T09:02:19.117Z,45.3
2023-04-23T09:07:37.305Z,45.7
2023-04-23T09:12:55.644Z,45.8
2023-04-23T09:18:13.766Z,45.6
2023-04-23T09:23:32.041Z,45.3
2023-04-23T09:28:51.033Z,46.2
2023-04-23T09:34:09.380Z,45.3
2023-04-23T09:39:27.760Z,45.5
2023-04-23T09:44:46.166Z,43.3
2023-04-23T09:50:04.327Z,42.5
2023-04-23T09:55:22.244Z,43.9
2023-04-23T10:00:40.878Z,42.9
2023-04-23T10:06:03.626Z,42.4
2023-04-23T10:11:22.323Z,41.2
2023-04-23T10:16:49.843Z,41
2023-04-23T10:22:20.716Z,41.6
2023-04-23T10:27:54.910Z,43.1
2023-04-23T10:33:30.799Z,39.7
2023-04-23T10:39:02.105Z,40.5
2023-04-23T10:50:04.302Z,41.1
2023-04-23T10:55:22.535Z,41.7
2023-04-23T11:00:40.806Z,41.4
2023-04-23T11:05:59.162Z,35.8
2023-04-23T11:11:17.625Z,39.3
2023-04-23T11:16:36.056Z,40.2
2023-04-23T11:21:54.385Z,41.6
2023-04-23T11:27:12.559Z,40.9
2023-04-23T11:32:30.903Z,41.9
2023-04-23T11:37:48.997Z,40.7
2023-04-23T11:43:07.794Z,40.5
2023-04-23T11:48:26.334Z,41.3
2023-04-23T11:53:44.772Z,42.4
2023-04-23T11:59:02.921Z,41
2023-04-23T12:04:21.964Z,40.9
2023-04-23T12:09:41.312Z,41.2
2023-04-23T12:14:59.769Z,42.3
2023-04-23T12:20:18.143Z,40.4
2023-04-23T12:25:36.487Z,40.8
2023-04-23T12:30:55.184Z,41.4
2023-04-23T12:36:13.951Z,41.8
2023-04-23T12:41:33.949Z,42.6
2023-04-23T12:46:53.561Z,42.1
2023-04-23T12:52:14.625Z,42.1
2023-04-23T12:57:33.487Z,42.5
2023-04-23T13:02:52.297Z,42.8
2023-04-23T13:08:10.839Z,43.6
2023-04-23T13:13:29.383Z,43.5
2023-04-23T13:18:47.694Z,43.2
2023-04-23T13:24:06.299Z,43.9
2023-04-23T13:29:24.650Z,43.6
2023-04-23T13:34:43.006Z,43.7
2023-04-23T13:40:01.220Z,44.5
2023-04-23T13:45:19.591Z,44.4
2023-04-23T13:50:37.768Z,44.9
2023-04-23T13:55:56.083Z,45.7
2023-04-23T14:01:14.190Z,45.3
2023-04-23T14:06:32.585Z,46
2023-04-23T14:11:50.935Z,45.6
2023-04-23T14:17:09.289Z,46
2023-04-23T14:22:27.798Z,45.9
2023-04-23T14:27:46.156Z,46.5
2023-04-23T14:33:04.798Z,46.3
2023-04-23T14:38:23.442Z,46.5
2023-04-23T14:43:41.763Z,45.9
2023-04-23T14:49:00.125Z,46.4
2023-04-23T14:54:18.328Z,46.6
2023-04-23T14:59:36.490Z,45.7
2023-04-23T15:04:54.708Z,46.3
2023-04-23T15:10:13.479Z,46.4
2023-04-23T15:15:45.169Z,45.8
2023-04-23T15:21:03.954Z,44.3
2023-04-23T15:26:22.092Z,40.1
2023-04-23T15:31:40.708Z,41
2023-04-23T15:36:59.390Z,42.3
2023-04-23T15:42:17.770Z,43.3
2023-04-23T15:47:35.718Z,43.6
2023-04-23T15:52:54.292Z,44.5
2023-04-23T15:58:12.648Z,44.9
2023-04-23T16:03:31.745Z,41.8
2023-04-23T16:08:50.476Z,44.3
2023-04-23T16:14:09.259Z,42.6
2023-04-23T16:19:27.810Z,43.7
2023-04-23T16:24:46.070Z,44.5
2023-04-23T16:30:04.154Z,45.3
2023-04-23T16:35:22.571Z,45.5
2023-04-23T16:40:43.626Z,43.2
2023-04-23T16:46:02.337Z,44.5
2023-04-23T16:51:20.837Z,38.5
2023-04-23T16:56:39.288Z,40.2
2023-04-23T17:01:57.777Z,42.3
2023-04-23T17:07:16.191Z,42.2
2023-04-23T17:12:34.756Z,44.5
2023-04-23T17:17:53.271Z,37.9
2023-04-23T17:23:11.240Z,39.9
2023-04-23T17:28:29.688Z,42.8
2023-04-23T17:33:49.696Z,44.1
2023-04-23T17:39:08.054Z,45.6
2023-04-23T17:44:26.442Z,45.9
2023-04-23T17:49:45.192Z,46.1
2023-04-23T17:54:47.908Z,45.3
2023-04-23T18:00:06.131Z,44.9
2023-04-23T18:05:08.841Z,44.7
2023-04-23T18:10:27.026Z,45.5
2023-04-23T18:15:45.228Z,45.7
2023-04-23T18:21:03.773Z,45.9
2023-04-23T18:26:22.264Z,46
2023-04-23T18:31:40.896Z,46.7
2023-04-23T18:36:59.110Z,47
2023-04-23T18:42:17.464Z,46.4
2023-04-23T18:47:36.017Z,46.3
2023-04-23T18:52:54.555Z,46.2
2023-04-23T18:58:13.720Z,46.8
2023-04-23T19:03:32.288Z,46.9
2023-04-23T19:08:50.885Z,46.9
2023-04-23T19:14:09.517Z,46.7
2023-04-23T19:19:28.048Z,46.8
2023-04-23T19:24:49.028Z,47
2023-04-23T19:30:07.446Z,46.3
2023-04-23T19:35:25.795Z,47
2023-04-23T19:40:44.422Z,46.1
2023-04-23T19:46:03.031Z,47
2023-04-23T19:51:21.570Z,46.3
2023-04-23T19:56:40.088Z,46.8
2023-04-23T20:01:58.642Z,47.3
2023-04-23T20:07:16.988Z,46.5
2023-04-23T20:12:35.821Z,46.5
2023-04-23T20:17:54.041Z,47.4
2023-04-23T20:23:12.052Z,47.4
2023-04-23T20:28:30.227Z,48
2023-04-23T20:33:48.602Z,47.2
2023-04-23T20:39:06.881Z,47
2023-04-23T20:44:25.097Z,47.5
2023-04-23T20:49:44.568Z,48
2023-04-23T20:55:03.048Z,47.6
2023-04-23T21:00:21.448Z,48.1
2023-04-23T21:05:39.943Z,48.2
2023-04-23T21:10:57.921Z,47.8
2023-04-23T21:16:16.312Z,47.6
2023-04-23T21:21:34.829Z,47.1
2023-04-23T21:26:52.895Z,46.5
2023-04-23T21:32:11.018Z,46.8
2023-04-23T21:37:29.393Z,47.2
2023-04-23T21:42:47.640Z,47
2023-04-23T21:48:06.210Z,47.3
2023-04-23T21:53:24.458Z,46.7
2023-04-23T21:58:44.080Z,47.6
2023-04-23T22:04:02.674Z,47.7
2023-04-23T22:09:20.880Z,47.8
2023-04-23T22:14:39.076Z,47.5
2023-04-23T22:19:57.236Z,47.1
2023-04-23T22:25:15.745Z,48.1
2023-04-23T22:30:33.943Z,47.7
2023-04-23T22:35:52.308Z,47.5
2023-04-23T22:41:10.495Z,48.2
2023-04-23T22:46:28.935Z,47.7
2023-04-23T22:51:47.144Z,48.3
2023-04-23T22:57:05.478Z,47.5
2023-04-23T23:02:23.875Z,48.5
2023-04-23T23:07:42.452Z,47.7
2023-04-23T23:13:00.802Z,48.5
2023-04-23T23:18:19.171Z,48.8
2023-04-23T23:23:37.485Z,48.9
2023-04-23T23:28:55.833Z,48.1
2023-04-23T23:34:14.181Z,48.3
2023-04-23T23:39:32.428Z,49.2
2023-04-23T23:44:50.815Z,48.6
2023-04-23T23:50:09.250Z,49.4
2023-04-23T23:55:27.172Z,48.9
